Terminal Aerodrome Forecast
Issued by NWS

Home | Current Version | Previous Version | Text Only | Print | Product List | Glossary On
Versions: 1 2 3 4 5 6 7 8 9 10 11 12 13 14 15 16 17 18 19 20 21 22 23
508
FTUS44 KLIX 161126
TAFMSY
TAF
KMSY 161126Z 1612/1712 13008KT P6SM SCT023 BKN070
      TEMPO 1612/1614 5SM BR SCT010 BKN023
     FM161500 15011KT P6SM BKN070
     FM170400 15007KT P6SM BKN025
     FM170600 16007KT 2SM BR BKN015
     FM170800 17006KT 3/4SM BR BKN003
     FM170900 17006KT 1/2SM FG BKN003=

USA.gov is the U.S. government's official web portal to all federal, state and local government web resources and services.